createdAt,value
2019-04-28T00:02:02.126Z,100195.75
2019-04-28T00:04:31.730Z,100200.07
2019-04-28T00:07:01.775Z,100206.53
2019-04-28T00:09:31.697Z,100211.36
2019-04-28T00:12:02.046Z,100211.62
2019-04-28T00:14:31.825Z,100209.22
2019-04-28T00:17:01.485Z,100214.86
2019-04-28T00:19:31.136Z,100216.50
2019-04-28T00:22:14.093Z,100215.69
2019-04-28T00:24:54.360Z,100220.56
2019-04-28T00:27:23.972Z,100215.97
2019-04-28T00:29:53.643Z,100216.77
2019-04-28T00:32:23.634Z,100219.20
2019-04-28T00:34:53.275Z,100224.33
2019-04-28T00:37:27.446Z,100222.98
2019-04-28T00:39:57.044Z,100220.56
2019-04-28T00:42:26.646Z,100225.41
2019-04-28T00:44:56.249Z,100224.33
2019-04-28T00:47:25.834Z,100220.55
2019-04-28T00:49:55.432Z,100220.02
2019-04-28T00:52:25.021Z,100227.58
2019-04-28T00:54:54.643Z,100233.77
2019-04-28T00:57:24.311Z,100231.61
2019-04-28T00:59:58.015Z,100236.19
2019-04-28T01:02:32.791Z,100239.16
2019-04-28T01:05:02.396Z,100235.92
2019-04-28T01:07:33.027Z,100230.26
2019-04-28T01:10:02.909Z,100234.86
2019-04-28T01:12:32.498Z,100231.34
2019-04-28T01:15:04.751Z,100232.97
2019-04-28T01:17:35.943Z,100231.87
2019-04-28T01:20:12.245Z,100224.34
2019-04-28T01:22:41.850Z,100225.97
2019-04-28T01:25:11.950Z,100227.30
2019-04-28T01:27:41.318Z,100232.43
2019-04-28T01:30:12.961Z,100230.80
2019-04-28T01:32:55.748Z,100231.89
2019-04-28T01:35:25.337Z,100231.34
2019-04-28T01:37:54.935Z,100238.06
2019-04-28T01:40:24.535Z,100237.53
2019-04-28T01:42:54.127Z,100237.25
2019-04-28T01:45:23.725Z,100238.34
2019-04-28T01:47:53.329Z,100233.49
2019-04-28T01:50:22.939Z,100238.86
2019-04-28T01:52:52.533Z,100242.36
2019-04-28T01:55:22.149Z,100240.47
2019-04-28T01:57:51.742Z,100235.08
2019-04-28T02:00:25.445Z,100242.89
2019-04-28T02:02:53.281Z,100239.06
2019-04-28T02:05:22.882Z,100246.05
2019-04-28T02:07:52.474Z,100247.14
2019-04-28T02:10:22.085Z,100251.18
2019-04-28T02:12:51.728Z,100250.63
2019-04-28T02:15:21.352Z,100256.01
2019-04-28T02:17:51.687Z,100250.63
2019-04-28T02:20:22.797Z,100250.63
2019-04-28T02:23:02.569Z,100254.42
2019-04-28T02:25:32.171Z,100260.30
2019-04-28T02:28:01.764Z,100255.19
2019-04-28T02:30:42.308Z,100254.66
2019-04-28T02:33:02.701Z,100248.47
2019-04-28T02:35:34.074Z,100256.02
2019-04-28T02:38:03.617Z,100261.13
2019-04-28T02:40:33.216Z,100258.70
2019-04-28T02:43:02.957Z,100261.97
2019-04-28T02:45:33.881Z,100263.08
2019-04-28T02:48:05.112Z,100256.08
2019-04-28T02:50:36.345Z,100256.03
2019-04-28T02:53:07.576Z,100261.41
2019-04-28T02:55:37.344Z,100261.42
2019-04-28T02:58:06.924Z,100268.41
2019-04-28T03:00:36.517Z,100265.72
2019-04-28T03:03:06.106Z,100262.23
2019-04-28T03:05:35.968Z,100263.84
2019-04-28T03:08:05.634Z,100264.63
2019-04-28T03:10:36.167Z,100266.53
2019-04-28T03:13:05.828Z,100263.34
2019-04-28T03:15:35.442Z,100269.48
2019-04-28T03:18:05.297Z,100263.31
2019-04-28T03:20:35.434Z,100267.06
2019-04-28T03:23:08.954Z,100263.02
2019-04-28T03:25:47.130Z,100260.07
2019-04-28T03:28:22.362Z,100259.78
2019-04-28T03:30:56.540Z,100259.25
2019-04-28T03:33:27.762Z,100263.55
2019-04-28T03:35:57.540Z,100265.69
2019-04-28T03:38:27.115Z,100266.24
2019-04-28T03:40:56.781Z,100274.61
2019-04-28T03:43:26.375Z,100278.38
2019-04-28T03:46:15.444Z,100284.03
2019-04-28T03:48:45.129Z,100283.76
2019-04-28T03:51:14.717Z,100297.22
2019-04-28T03:53:44.306Z,100285.63
2019-04-28T03:56:13.921Z,100303.95
2019-04-28T03:58:43.497Z,100301.78
2019-04-28T04:01:13.171Z,100306.94
2019-04-28T04:03:42.768Z,100309.65
2019-04-28T04:06:12.376Z,100315.30
2019-04-28T04:08:41.968Z,100320.42
2019-04-28T04:11:13.224Z,100322.29
2019-04-28T04:14:01.688Z,100323.11
2019-04-28T04:16:40.595Z,100318.55
2019-04-28T04:19:17.343Z,100311.02
2019-04-28T04:21:46.946Z,100308.06
2019-04-28T04:24:16.539Z,100309.38
2019-04-28T04:26:46.130Z,100300.25
2019-04-28T04:29:15.737Z,100298.88
2019-04-28T04:31:45.348Z,100288.11
2019-04-28T04:34:14.952Z,100293.23
2019-04-28T04:36:44.571Z,100300.78
2019-04-28T04:39:14.175Z,100304.82
2019-04-28T04:41:44.028Z,100309.94
2019-04-28T04:44:13.645Z,100313.16
2019-04-28T04:46:43.306Z,100316.94
2019-04-28T04:49:12.894Z,100325.03
2019-04-28T04:51:43.842Z,100325.02
2019-04-28T04:54:13.774Z,100326.42
2019-04-28T04:56:43.352Z,100336.63
2019-04-28T04:59:12.955Z,100333.41
2019-04-28T05:01:53.403Z,100337.19
2019-04-28T05:04:39.775Z,100348.77
2019-04-28T05:07:10.868Z,100360.89
2019-04-28T05:09:40.530Z,100364.41
2019-04-28T05:12:10.120Z,100373.80
2019-04-28T05:14:39.733Z,100373.02
2019-04-28T05:17:10.412Z,100371.95
2019-04-28T05:19:40.241Z,100370.06
2019-04-28T05:22:11.176Z,100376.02
2019-04-28T05:24:46.305Z,100387.34
2019-04-28T05:27:17.365Z,100381.41
2019-04-28T05:29:45.056Z,100380.06
2019-04-28T05:32:14.650Z,100393.25
2019-04-28T05:34:46.739Z,100396.23
2019-04-28T05:37:15.574Z,100401.07
2019-04-28T05:39:45.156Z,100405.39
2019-04-28T05:42:14.749Z,100405.68
2019-04-28T05:44:44.367Z,100410.27
2019-04-28T05:47:13.969Z,100417.81
2019-04-28T05:49:45.228Z,100416.21
2019-04-28T05:52:32.866Z,100416.75
2019-04-28T05:55:04.089Z,100411.63
2019-04-28T05:57:39.664Z,100403.27
2019-04-28T06:00:23.029Z,100412.70
2019-04-28T06:02:56.849Z,100411.66
2019-04-28T06:05:25.603Z,100419.22
2019-04-28T06:08:12.894Z,100424.07
2019-04-28T06:10:42.484Z,100425.39
2019-04-28T06:13:12.098Z,100418.38
2019-04-28T06:15:41.707Z,100415.69
2019-04-28T06:18:11.326Z,100417.53
2019-04-28T06:20:40.924Z,100416.72
2019-04-28T06:23:10.529Z,100413.97
2019-04-28T06:25:40.139Z,100415.02
2019-04-28T06:28:09.749Z,100415.22
2019-04-28T06:30:39.352Z,100410.30
2019-04-28T06:33:09.002Z,100418.69
2019-04-28T06:35:38.583Z,100420.79
2019-04-28T06:38:08.169Z,100426.52
2019-04-28T06:40:37.763Z,100425.45
2019-04-28T06:43:07.372Z,100430.59
2019-04-28T06:45:36.982Z,100425.72
2019-04-28T06:48:06.590Z,100436.23
2019-04-28T06:50:36.211Z,100439.20
2019-04-28T06:53:05.811Z,100450.02
2019-04-28T06:55:35.426Z,100449.48
2019-04-28T06:58:05.028Z,100452.46
2019-04-28T07:00:34.644Z,100459.59
2019-04-28T07:03:04.231Z,100460.65
2019-04-28T07:05:33.842Z,100462.66
2019-04-28T07:08:03.448Z,100457.55
2019-04-28T07:10:33.046Z,100472.83
2019-04-28T07:13:02.641Z,100483.17
2019-04-28T07:15:32.224Z,100492.73
2019-04-28T07:18:01.815Z,100489.83
2019-04-28T07:20:33.851Z,100492.50
2019-04-28T07:23:03.537Z,100489.77
2019-04-28T07:25:33.169Z,100494.11
2019-04-28T07:28:03.033Z,100493.33
2019-04-28T07:30:32.910Z,100498.54
2019-04-28T07:33:02.504Z,100500.41
2019-04-28T07:35:32.280Z,100505.82
2019-04-28T07:38:01.884Z,100505.97
2019-04-28T07:40:31.505Z,100503.75
2019-04-28T07:43:01.111Z,100504.95
2019-04-28T07:45:30.714Z,100509.34
2019-04-28T07:48:00.338Z,100520.55
2019-04-28T07:50:29.932Z,100517.89
2019-04-28T07:53:01.180Z,100520.06
2019-04-28T07:55:30.819Z,100527.91
2019-04-28T07:58:00.421Z,100532.58
2019-04-28T08:00:31.830Z,100534.48
2019-04-28T08:03:01.485Z,100542.06
2019-04-28T08:05:31.093Z,100539.16
2019-04-28T08:08:00.732Z,100542.94
2019-04-28T08:10:30.340Z,100547.67
2019-04-28T08:12:59.936Z,100551.95
2019-04-28T08:15:29.565Z,100556.12
2019-04-28T08:17:59.148Z,100557.56
2019-04-28T08:20:28.753Z,100547.36
2019-04-28T08:22:58.356Z,100553.11
2019-04-28T08:25:28.047Z,100558.47
2019-04-28T08:27:58.494Z,100562.81
2019-04-28T08:30:28.229Z,100566.70
2019-04-28T08:32:59.476Z,100578.44
2019-04-28T08:35:29.100Z,100581.23
2019-04-28T08:37:58.690Z,100574.69
2019-04-28T08:40:31.664Z,100577.06
2019-04-28T08:43:01.268Z,100580.94
2019-04-28T08:45:30.881Z,100579.66
2019-04-28T08:48:00.502Z,100580.25
2019-04-28T08:50:30.114Z,100575.95
2019-04-28T08:52:59.721Z,100573.94
2019-04-28T08:55:29.329Z,100572.89
2019-04-28T08:57:58.962Z,100576.06
2019-04-28T09:00:28.573Z,100571.30
2019-04-28T09:02:58.159Z,100576.35
2019-04-28T09:05:27.774Z,100588.60
2019-04-28T09:07:57.361Z,100588.02
2019-04-28T09:10:27.158Z,100595.81
2019-04-28T09:12:56.761Z,100600.67
2019-04-28T09:15:26.364Z,100601.80
2019-04-28T09:17:55.977Z,100596.06
2019-04-28T09:20:25.587Z,100600.70
2019-04-28T09:22:55.195Z,100596.31
2019-04-28T09:25:24.800Z,100602.20
2019-04-28T09:27:54.413Z,100602.98
2019-04-28T09:30:24.017Z,100602.87
2019-04-28T09:32:53.636Z,100599.02
2019-04-28T09:35:23.236Z,100600.68
2019-04-28T09:37:52.846Z,100596.06
2019-04-28T09:40:22.449Z,100601.03
2019-04-28T09:43:02.404Z,100599.63
2019-04-28T09:45:33.644Z,100591.62
2019-04-28T09:48:03.243Z,100596.04
2019-04-28T09:50:32.853Z,100593.54
2019-04-28T09:53:02.689Z,100595.34
2019-04-28T09:55:32.292Z,100589.23
2019-04-28T09:58:01.895Z,100581.17
2019-04-28T10:00:31.945Z,100588.53
2019-04-28T10:03:01.586Z,100587.70
2019-04-28T10:05:31.184Z,100589.05
2019-04-28T10:08:00.795Z,100587.02
2019-04-28T10:10:30.386Z,100592.08
2019-04-28T10:12:59.986Z,100589.50
2019-04-28T10:15:29.597Z,100591.31
2019-04-28T10:17:59.222Z,100594.94
2019-04-28T10:20:28.805Z,100581.93
2019-04-28T10:22:58.419Z,100579.48
2019-04-28T10:25:28.020Z,100577.77
2019-04-28T10:27:59.178Z,100568.96
2019-04-28T10:30:28.807Z,100574.41
2019-04-28T10:32:58.368Z,100583.27
2019-04-28T10:35:27.984Z,100582.86
2019-04-28T10:37:57.673Z,100581.00
2019-04-28T10:40:40.735Z,100573.86
2019-04-28T10:43:10.417Z,100573.37
2019-04-28T10:45:47.398Z,100580.55
2019-04-28T10:48:17.011Z,100581.75
2019-04-28T10:50:46.682Z,100581.36
2019-04-28T10:53:16.294Z,100588.75
2019-04-28T10:55:45.944Z,100581.98
2019-04-28T10:58:16.446Z,100587.32
2019-04-28T11:00:46.050Z,100587.97
2019-04-28T11:03:15.660Z,100589.16
2019-04-28T11:05:46.138Z,100590.28
2019-04-28T11:08:32.504Z,100589.33
2019-04-28T11:11:03.812Z,100588.73
2019-04-28T11:13:33.514Z,100583.45
2019-04-28T11:16:03.103Z,100585.96
2019-04-28T11:18:32.760Z,100582.09
2019-04-28T11:21:02.370Z,100593.30
2019-04-28T11:23:31.976Z,100591.63
2019-04-28T11:26:01.580Z,100590.62
2019-04-28T11:28:31.361Z,100588.77
2019-04-28T11:31:01.021Z,100588.77
2019-04-28T11:33:30.685Z,100592.31
2019-04-28T11:36:00.569Z,100584.37
2019-04-28T11:38:30.192Z,100591.62
2019-04-28T11:40:59.770Z,100593.49
2019-04-28T11:43:29.383Z,100599.93
2019-04-28T11:45:58.984Z,100595.85
2019-04-28T11:48:28.711Z,100590.34
2019-04-28T11:50:58.308Z,100588.95
2019-04-28T11:53:27.920Z,100585.00
2019-04-28T11:55:57.526Z,100581.16
2019-04-28T11:58:27.128Z,100580.48
2019-04-28T12:00:57.400Z,100584.75
2019-04-28T12:03:26.980Z,100584.75
2019-04-28T12:05:56.588Z,100581.86
2019-04-28T12:08:26.370Z,100582.85
2019-04-28T12:11:09.294Z,100565.97
2019-04-28T12:13:46.239Z,100569.60
2019-04-28T12:16:33.479Z,100568.11
2019-04-28T12:19:13.332Z,100571.68
2019-04-28T12:21:42.954Z,100576.22
2019-04-28T12:24:12.630Z,100583.85
2019-04-28T12:26:42.230Z,100585.72
2019-04-28T12:29:11.839Z,100593.25
2019-04-28T12:31:41.466Z,100594.54
2019-04-28T12:34:11.058Z,100593.25
2019-04-28T12:36:40.671Z,100583.39
2019-04-28T12:39:10.259Z,100585.09
2019-04-28T12:41:40.244Z,100573.47
2019-04-28T12:44:10.279Z,100577.39
2019-04-28T12:46:40.391Z,100567.83
2019-04-28T12:49:17.202Z,100573.78
2019-04-28T12:51:46.810Z,100570.13
2019-04-28T12:54:18.068Z,100574.77
2019-04-28T12:56:47.657Z,100563.77
2019-04-28T12:59:24.647Z,100566.73
2019-04-28T13:01:58.991Z,100567.16
2019-04-28T13:04:33.071Z,100568.00
2019-04-28T13:07:04.314Z,100570.67
2019-04-28T13:09:34.095Z,100560.66
2019-04-28T13:12:05.040Z,100573.95
2019-04-28T13:14:34.728Z,100588.02
2019-04-28T13:17:04.407Z,100576.52
2019-04-28T13:19:34.008Z,100577.70
2019-04-28T13:22:05.518Z,100567.91
2019-04-28T13:24:34.970Z,100565.63
2019-04-28T13:27:04.561Z,100563.86
2019-04-28T13:29:34.168Z,100554.50
2019-04-28T13:32:03.780Z,100566.10
2019-04-28T13:34:35.011Z,100563.06
2019-04-28T13:37:04.619Z,100561.70
2019-04-28T13:39:35.851Z,100562.41
2019-04-28T13:42:06.206Z,100556.09
2019-04-28T13:44:49.561Z,100554.48
2019-04-28T13:47:19.652Z,100548.06
2019-04-28T13:49:50.936Z,100552.66
2019-04-28T13:52:20.551Z,100553.47
2019-04-28T13:54:51.776Z,100544.38
2019-04-28T13:57:21.380Z,100547.05
2019-04-28T13:59:52.608Z,100551.92
2019-04-28T14:02:29.425Z,100554.41
2019-04-28T14:05:17.057Z,99086.79
2019-04-28T14:07:46.732Z,100550.40
2019-04-28T14:10:16.411Z,100548.59
2019-04-28T14:12:46.041Z,100550.04
2019-04-28T14:15:15.625Z,100549.81
2019-04-28T14:17:45.227Z,100551.83
2019-04-28T14:20:14.895Z,100545.42
2019-04-28T14:22:44.489Z,100557.53
2019-04-28T14:25:14.150Z,100555.86
2019-04-28T14:27:43.752Z,100553.72
2019-04-28T14:30:13.510Z,100562.03
2019-04-28T14:32:43.161Z,100559.11
2019-04-28T14:35:12.875Z,100554.97
2019-04-28T14:37:42.454Z,100555.42
2019-04-28T14:40:12.218Z,100545.98
2019-04-28T14:42:41.824Z,100548.75
2019-04-28T14:45:12.241Z,100550.98
2019-04-28T14:47:41.926Z,100543.30
2019-04-28T14:50:11.749Z,100550.00
2019-04-28T14:52:41.363Z,100546.70
2019-04-28T14:55:11.443Z,100552.02
2019-04-28T14:57:41.059Z,100554.89
2019-04-28T15:00:12.817Z,100552.98
2019-04-28T15:02:50.005Z,100546.92
2019-04-28T15:05:33.445Z,100553.34
2019-04-28T15:08:20.631Z,100559.86
2019-04-28T15:11:01.594Z,100551.73
2019-04-28T15:13:31.222Z,100547.16
2019-04-28T15:16:00.994Z,100549.79
2019-04-28T15:18:30.618Z,100543.38
2019-04-28T15:21:00.197Z,100549.67
2019-04-28T15:23:29.806Z,100554.17
2019-04-28T15:25:59.994Z,100554.00
2019-04-28T15:28:30.337Z,100554.88
2019-04-28T15:30:59.959Z,100560.36
2019-04-28T15:33:29.560Z,100560.77
2019-04-28T15:35:59.190Z,100551.09
2019-04-28T15:38:28.796Z,100565.52
2019-04-28T15:40:58.399Z,100564.09
2019-04-28T15:43:28.000Z,100562.48
2019-04-28T15:45:57.630Z,100563.27
2019-04-28T15:48:27.223Z,100559.14
2019-04-28T15:50:56.859Z,100555.28
2019-04-28T15:53:26.562Z,100560.24
2019-04-28T15:56:00.566Z,100557.77
2019-04-28T15:58:32.039Z,100561.31
2019-04-28T16:01:01.921Z,100570.80
2019-04-28T16:03:31.507Z,100564.86
2019-04-28T16:06:01.190Z,100565.21
2019-04-28T16:08:30.779Z,100564.38
2019-04-28T16:11:00.404Z,100561.31
2019-04-28T16:13:30.011Z,100555.50
2019-04-28T16:15:59.617Z,100556.63
2019-04-28T16:18:29.211Z,100557.73
2019-04-28T16:20:58.823Z,100560.86
2019-04-28T16:23:28.415Z,100565.61
2019-04-28T16:25:58.020Z,100572.98
2019-04-28T16:28:27.617Z,100569.35
2019-04-28T16:30:57.229Z,100567.07
2019-04-28T16:33:26.828Z,100574.39
2019-04-28T16:35:56.449Z,100572.55
2019-04-28T16:38:26.052Z,100566.21
2019-04-28T16:43:32.556Z,100573.11
2019-04-28T16:46:02.161Z,100574.97
2019-04-28T16:48:31.755Z,100581.27
2019-04-28T16:51:01.366Z,100579.98
2019-04-28T16:53:30.955Z,100585.83
2019-04-28T16:56:10.949Z,100588.09
2019-04-28T16:58:50.999Z,100586.63
2019-04-28T17:01:33.779Z,100589.87
2019-04-28T17:04:03.381Z,100594.92
2019-04-28T17:06:32.999Z,100598.59
2019-04-28T17:09:02.691Z,100601.89
2019-04-28T17:11:32.315Z,100604.02
2019-04-28T17:14:01.996Z,100603.96
2019-04-28T17:16:31.612Z,100609.55
2019-04-28T17:19:01.211Z,100611.42
2019-04-28T17:21:30.830Z,100613.42
2019-04-28T17:24:00.438Z,100612.95
2019-04-28T17:26:30.045Z,100613.78
2019-04-28T17:28:59.638Z,100614.37
2019-04-28T17:31:30.942Z,100616.75
2019-04-28T17:34:00.632Z,100611.43
2019-04-28T17:36:30.234Z,100612.12
2019-04-28T17:38:59.836Z,100613.37
2019-04-28T17:41:29.616Z,100615.99
2019-04-28T17:43:59.197Z,100613.16
2019-04-28T17:46:28.796Z,100618.47
2019-04-28T17:49:00.274Z,100620.84
2019-04-28T17:51:29.942Z,100620.70
2019-04-28T17:53:59.526Z,100628.41
2019-04-28T17:56:29.115Z,100632.05
2019-04-28T17:58:58.745Z,100632.92
2019-04-28T18:01:41.911Z,100634.88
2019-04-28T18:04:25.319Z,100629.00
2019-04-28T18:07:05.196Z,100642.09
2019-04-28T18:09:34.798Z,100648.38
2019-04-28T18:12:04.794Z,100643.31
2019-04-28T18:14:35.191Z,100653.68
2019-04-28T18:17:22.447Z,100648.02
2019-04-28T18:19:52.039Z,100654.52
2019-04-28T18:22:21.646Z,100653.76
2019-04-28T18:24:51.257Z,100660.55
2019-04-28T18:27:20.857Z,100665.17
2019-04-28T18:29:50.472Z,100665.22
2019-04-28T18:32:39.470Z,100666.31
2019-04-28T18:35:10.797Z,100674.70
2019-04-28T18:37:47.651Z,100679.59
2019-04-28T18:40:21.613Z,100681.78
2019-04-28T18:42:55.726Z,100680.43
2019-04-28T18:45:25.332Z,100682.88
2019-04-28T18:47:55.306Z,100686.41
2019-04-28T18:50:24.888Z,100690.75
2019-04-28T18:52:54.518Z,100693.20
2019-04-28T18:55:24.114Z,100695.63
2019-04-28T18:57:53.721Z,100697.55
2019-04-28T19:00:25.051Z,100702.69
2019-04-28T19:02:54.662Z,100704.58
2019-04-28T19:05:25.897Z,100706.45
2019-04-28T19:07:59.733Z,100709.96
2019-04-28T19:10:30.974Z,100719.66
2019-04-28T19:13:08.354Z,100728.05
2019-04-28T19:15:40.352Z,100729.41
2019-04-28T19:18:20.732Z,100723.98
2019-04-28T19:20:50.333Z,100728.57
2019-04-28T19:23:19.924Z,100732.89
2019-04-28T19:25:49.522Z,100732.34
2019-04-28T19:28:19.131Z,100731.00
2019-04-28T19:30:48.892Z,100736.67
2019-04-28T19:33:18.495Z,100739.11
2019-04-28T19:35:48.103Z,100740.98
2019-04-28T19:38:17.730Z,100740.45
2019-04-28T19:40:47.328Z,100745.30
2019-04-28T19:43:16.930Z,100750.70
2019-04-28T19:45:48.254Z,100745.03
2019-04-28T19:48:18.068Z,100745.30
2019-04-28T19:50:49.228Z,100746.91
2019-04-28T19:53:18.892Z,100743.69
2019-04-28T19:55:50.147Z,100750.44
2019-04-28T19:58:27.337Z,100742.33
2019-04-28T20:01:01.679Z,100745.32
2019-04-28T20:03:32.857Z,100752.34
2019-04-28T20:06:04.044Z,100753.69
2019-04-28T20:08:33.625Z,100750.99
2019-04-28T20:11:03.265Z,100752.34
2019-04-28T20:13:32.925Z,100756.39
2019-04-28T20:16:02.638Z,100760.98
2019-04-28T20:18:32.176Z,100761.24
2019-04-28T20:21:01.825Z,100758.00
2019-04-28T20:23:31.483Z,100757.73
2019-04-28T20:26:01.079Z,100758.30
2019-04-28T20:28:30.733Z,100755.86
2019-04-28T20:31:00.432Z,100760.70
2019-04-28T20:33:30.127Z,100759.89
2019-04-28T20:36:03.925Z,100759.89
2019-04-28T20:38:34.265Z,100768.55
2019-04-28T20:41:21.684Z,100762.05
2019-04-28T20:43:52.400Z,100760.45
2019-04-28T20:46:22.004Z,100758.02
2019-04-28T20:48:51.595Z,100759.59
2019-04-28T20:51:21.333Z,100760.13
2019-04-28T20:53:50.974Z,100762.84
2019-04-28T20:56:22.321Z,100766.59
2019-04-28T20:58:51.942Z,100760.11
2019-04-28T21:01:21.560Z,100758.47
2019-04-28T21:03:51.156Z,100762.48
2019-04-28T21:06:20.918Z,100766.80
2019-04-28T21:08:50.515Z,100762.48
2019-04-28T21:11:20.241Z,100767.06
2019-04-28T21:13:49.870Z,100766.53
2019-04-28T21:16:19.476Z,100768.91
2019-04-28T21:18:49.423Z,100764.59
2019-04-28T21:21:19.014Z,100763.25
2019-04-28T21:23:48.646Z,100772.13
2019-04-28T21:26:18.257Z,100770.78
2019-04-28T21:28:47.904Z,100760.77
2019-04-28T21:31:17.537Z,100761.30
2019-04-28T21:33:47.138Z,100763.69
2019-04-28T21:36:16.786Z,100764.77
2019-04-28T21:38:48.047Z,100768.00
2019-04-28T21:41:17.731Z,100767.16
2019-04-28T21:43:48.977Z,100767.39
2019-04-28T21:46:20.203Z,100768.18
2019-04-28T21:48:51.518Z,100769.79
2019-04-28T21:51:21.128Z,100769.22
2019-04-28T21:53:50.770Z,100766.78
2019-04-28T21:56:20.429Z,100772.44
2019-04-28T21:58:50.039Z,100771.65
2019-04-28T22:01:23.163Z,100778.61
2019-04-28T22:03:52.768Z,100776.16
2019-04-28T22:06:22.387Z,100771.50
2019-04-28T22:08:51.999Z,100774.45
2019-04-28T22:11:21.584Z,100779.26
2019-04-28T22:13:51.201Z,100783.30
2019-04-28T22:16:20.801Z,100782.73
2019-04-28T22:18:50.457Z,100788.95
2019-04-28T22:21:20.058Z,100783.30
2019-04-28T22:23:54.611Z,100785.98
2019-04-28T22:26:28.466Z,100793.81
2019-04-28T22:28:58.027Z,100789.78
2019-04-28T22:31:27.629Z,100795.16
2019-04-28T22:33:57.244Z,100798.38
2019-04-28T22:36:30.125Z,100797.55
2019-04-28T22:38:59.816Z,100799.15
2019-04-28T22:41:29.422Z,100797.22
2019-04-28T22:43:59.040Z,100799.39
2019-04-28T22:46:28.642Z,100804.48
2019-04-28T22:48:59.897Z,100809.09
2019-04-28T22:51:29.515Z,100808.20
2019-04-28T22:54:00.838Z,100806.83
2019-04-28T22:56:32.111Z,100806.83
2019-04-28T22:59:01.502Z,100805.73
2019-04-28T23:01:32.754Z,100809.21
2019-04-28T23:04:09.990Z,100808.45
2019-04-28T23:06:39.581Z,100808.75
2019-04-28T23:09:11.392Z,100813.55
2019-04-28T23:11:41.157Z,100810.34
2019-04-28T23:14:10.751Z,100811.62
2019-04-28T23:16:40.341Z,100816.38
2019-04-28T23:19:11.591Z,100810.73
2019-04-28T23:21:54.530Z,100813.16
2019-04-28T23:24:24.140Z,100815.61
2019-04-28T23:26:53.741Z,100815.02
2019-04-28T23:29:23.339Z,100816.02
2019-04-28T23:31:52.939Z,100820.00
2019-04-28T23:34:22.544Z,100818.91
2019-04-28T23:36:52.134Z,100815.42
2019-04-28T23:39:21.748Z,100816.21
2019-04-28T23:41:55.451Z,100815.69
2019-04-28T23:44:25.074Z,100808.94
2019-04-28T23:46:56.509Z,100808.12
2019-04-28T23:49:30.146Z,100806.83
2019-04-28T23:52:17.819Z,100810.06
2019-04-28T23:54:51.712Z,100812.47
2019-04-28T23:57:21.313Z,100815.18
2019-04-28T23:59:50.919Z,100819.80
